Adapazari, Turkey

1:59 AM EET on October 31, 2014 (GMT +0200)
Yenisehir Air Base | Change Station
CLOSE
Current Station
Airport
Location: YENISEHIR AB,
Elevation: 764 ft
Nearby Weather Stations

Elev 764 ft 40.26 °N, 29.56 °E | Updated 39 minutes ago

Light Rain Showers
Light Showers Rain
52 °F
Feels Like 52 °F
N
6
Wind Variable Wind from West

Today
High -- | Low -- °F
--% Chance of Precip.
Yesterday
High -- | Low -- °F
Precip. -- in
6:27 AM 4:56 PM
Waxing Crescent, 49% visible
Pressure 30.04 in
Visibility 6.2 miles
Clouds Mostly Cloudy 3000 ft
Mostly Cloudy 9000 ft
Dew Point 48 °F
Humidity 88%
Rainfall 0.00 in
Snow Depth Not available.
UV 0 out of 12
Pollen Not available.
Air Quality Not available.
Flu Activity Not available.
METAR LTBR 302320Z 28005KT 9999 -SHRA BKN030 BKN090 11/09 Q1017 NOSIG

More Conditions Fewer Conditions

Pressure 30.04 in
Visibility 6.2 miles
Clouds Mostly Cloudy 3000 ft
Mostly Cloudy 9000 ft
Dew Point 48 °F
Humidity 88%
Rainfall 0.00 in
Snow Depth Not available.
UV 0 out of 12
Pollen Not available.
Air Quality Not available.
Flu Activity Not available.
METAR LTBR 302320Z 28005KT 9999 -SHRA BKN030 BKN090 11/09 Q1017 NOSIG

More Conditions Fewer Conditions

10-Day Weather Forecast

Almanac

Astronomy

Oct. 31, 2014 Rise Set
Actual Time
Civil Twilight
Nautical Twilight
Astronomical Twilight
Moon
Length of Visible Light
Length of Day
Tomorrow will be .
, % of the Moon is Illuminated

Today's Extremes

Country Highs Country Lows

Community

WunderPhotos

Upload Photos

1,766,496 photos uploaded!

WunderBlogs® & News

Nearby

Air Quality

  Air Quality AQ Index Pollutant
Not available.

Snow Depth

Station Depth Elevation

Earthquake Activity

City Distance Mag. Time & Date
Minimum magnitude displayed is 2.5.

Coastal Water Temperatures

Place Temperature

Nearby Weather Stations